sensor_id;sensor_type;location;lat;lon;timestamp;P1;durP1;ratioP1;P2;durP2;ratioP2
25758;SDS011;13604;52.496;13.456;2023-01-19T00:02:20;35.97;;;16.35;;
25758;SDS011;13604;52.496;13.456;2023-01-19T00:04:45;48.95;;;18.95;;
25758;SDS011;13604;52.496;13.456;2023-01-19T00:07:10;44.78;;;17.83;;
25758;SDS011;13604;52.496;13.456;2023-01-19T00:09:36;36.05;;;17.05;;
25758;SDS011;13604;52.496;13.456;2023-01-19T00:12:10;39.63;;;17.40;;
25758;SDS011;13604;52.496;13.456;2023-01-19T00:14:35;46.92;;;18.42;;
25758;SDS011;13604;52.496;13.456;2023-01-19T00:17:00;46.38;;;17.65;;
25758;SDS011;13604;52.496;13.456;2023-01-19T00:19:26;43.40;;;18.33;;
25758;SDS011;13604;52.496;13.456;2023-01-19T00:21:52;40.15;;;17.20;;
25758;SDS011;13604;52.496;13.456;2023-01-19T00:24:18;44.75;;;18.08;;
25758;SDS011;13604;52.496;13.456;2023-01-19T00:26:43;46.47;;;19.00;;
25758;SDS011;13604;52.496;13.456;2023-01-19T00:29:12;41.22;;;17.90;;
25758;SDS011;13604;52.496;13.456;2023-01-19T00:31:38;44.22;;;17.23;;
25758;SDS011;13604;52.496;13.456;2023-01-19T00:34:04;46.42;;;17.95;;
25758;SDS011;13604;52.496;13.456;2023-01-19T00:36:30;42.33;;;19.75;;
25758;SDS011;13604;52.496;13.456;2023-01-19T00:38:56;43.15;;;18.60;;
25758;SDS011;13604;52.496;13.456;2023-01-19T00:41:21;48.75;;;18.98;;
25758;SDS011;13604;52.496;13.456;2023-01-19T00:44:07;50.20;;;21.95;;
25758;SDS011;13604;52.496;13.456;2023-01-19T00:46:33;45.55;;;19.90;;
25758;SDS011;13604;52.496;13.456;2023-01-19T00:48:58;46.33;;;18.42;;
25758;SDS011;13604;52.496;13.456;2023-01-19T00:51:23;42.88;;;18.10;;
25758;SDS011;13604;52.496;13.456;2023-01-19T00:53:49;45.97;;;18.17;;
25758;SDS011;13604;52.496;13.456;2023-01-19T00:56:14;44.08;;;18.30;;
25758;SDS011;13604;52.496;13.456;2023-01-19T00:58:40;52.72;;;18.83;;
25758;SDS011;13604;52.496;13.456;2023-01-19T01:01:05;37.00;;;18.20;;
25758;SDS011;13604;52.496;13.456;2023-01-19T01:03:31;44.92;;;18.60;;
25758;SDS011;13604;52.496;13.456;2023-01-19T01:05:56;41.90;;;17.63;;
25758;SDS011;13604;52.496;13.456;2023-01-19T01:08:22;54.20;;;19.40;;
25758;SDS011;13604;52.496;13.456;2023-01-19T01:10:47;42.92;;;18.40;;
25758;SDS011;13604;52.496;13.456;2023-01-19T01:13:14;46.90;;;18.27;;
25758;SDS011;13604;52.496;13.456;2023-01-19T01:15:40;48.05;;;18.90;;
25758;SDS011;13604;52.496;13.456;2023-01-19T01:18:05;48.75;;;19.98;;
25758;SDS011;13604;52.496;13.456;2023-01-19T01:20:30;39.15;;;17.58;;
25758;SDS011;13604;52.496;13.456;2023-01-19T01:22:58;40.25;;;18.42;;
25758;SDS011;13604;52.496;13.456;2023-01-19T01:25:24;39.50;;;18.45;;
25758;SDS011;13604;52.496;13.456;2023-01-19T01:27:51;50.40;;;18.25;;
25758;SDS011;13604;52.496;13.456;2023-01-19T01:30:16;44.60;;;19.52;;
25758;SDS011;13604;52.496;13.456;2023-01-19T01:32:42;41.22;;;19.13;;
25758;SDS011;13604;52.496;13.456;2023-01-19T01:35:08;50.90;;;20.02;;
25758;SDS011;13604;52.496;13.456;2023-01-19T01:37:34;52.92;;;20.63;;
25758;SDS011;13604;52.496;13.456;2023-01-19T01:40:00;42.20;;;18.75;;
25758;SDS011;13604;52.496;13.456;2023-01-19T01:42:26;51.22;;;19.63;;
25758;SDS011;13604;52.496;13.456;2023-01-19T01:44:54;46.20;;;19.35;;
25758;SDS011;13604;52.496;13.456;2023-01-19T01:47:26;47.45;;;19.17;;
25758;SDS011;13604;52.496;13.456;2023-01-19T01:49:58;41.42;;;17.15;;
25758;SDS011;13604;52.496;13.456;2023-01-19T01:52:25;41.33;;;17.35;;
25758;SDS011;13604;52.496;13.456;2023-01-19T01:54:53;42.30;;;18.67;;
25758;SDS011;13604;52.496;13.456;2023-01-19T01:57:19;52.20;;;19.05;;
25758;SDS011;13604;52.496;13.456;2023-01-19T01:59:45;54.03;;;20.88;;
25758;SDS011;13604;52.496;13.456;2023-01-19T02:02:15;45.88;;;18.80;;
25758;SDS011;13604;52.496;13.456;2023-01-19T02:05:03;43.95;;;19.52;;
25758;SDS011;13604;52.496;13.456;2023-01-19T02:07:34;51.90;;;19.75;;
25758;SDS011;13604;52.496;13.456;2023-01-19T02:10:24;50.72;;;20.50;;
25758;SDS011;13604;52.496;13.456;2023-01-19T02:13:08;60.20;;;22.52;;
25758;SDS011;13604;52.496;13.456;2023-01-19T02:15:46;53.10;;;21.25;;
25758;SDS011;13604;52.496;13.456;2023-01-19T02:18:13;66.18;;;23.67;;
25758;SDS011;13604;52.496;13.456;2023-01-19T02:20:40;60.70;;;22.58;;
25758;SDS011;13604;52.496;13.456;2023-01-19T02:23:13;56.72;;;20.75;;
25758;SDS011;13604;52.496;13.456;2023-01-19T02:25:44;53.53;;;20.73;;
25758;SDS011;13604;52.496;13.456;2023-01-19T02:28:11;60.40;;;20.92;;
25758;SDS011;13604;52.496;13.456;2023-01-19T02:30:37;55.90;;;21.15;;
25758;SDS011;13604;52.496;13.456;2023-01-19T02:33:05;53.45;;;20.10;;
25758;SDS011;13604;52.496;13.456;2023-01-19T02:35:31;53.38;;;21.15;;
25758;SDS011;13604;52.496;13.456;2023-01-19T02:37:57;50.55;;;19.60;;
25758;SDS011;13604;52.496;13.456;2023-01-19T02:40:23;43.40;;;19.33;;
25758;SDS011;13604;52.496;13.456;2023-01-19T02:42:51;57.13;;;22.25;;
25758;SDS011;13604;52.496;13.456;2023-01-19T02:45:20;50.03;;;20.83;;
25758;SDS011;13604;52.496;13.456;2023-01-19T02:47:47;53.38;;;22.30;;
25758;SDS011;13604;52.496;13.456;2023-01-19T02:50:33;61.30;;;23.38;;
25758;SDS011;13604;52.496;13.456;2023-01-19T02:53:11;57.15;;;22.02;;
25758;SDS011;13604;52.496;13.456;2023-01-19T02:55:52;61.17;;;24.88;;
25758;SDS011;13604;52.496;13.456;2023-01-19T02:58:29;54.40;;;23.63;;
25758;SDS011;13604;52.496;13.456;2023-01-19T03:03:58;66.00;;;24.60;;
25758;SDS011;13604;52.496;13.456;2023-01-19T03:06:43;62.97;;;25.23;;
25758;SDS011;13604;52.496;13.456;2023-01-19T03:11:50;57.20;;;25.42;;
25758;SDS011;13604;52.496;13.456;2023-01-19T03:14:23;61.00;;;24.52;;
25758;SDS011;13604;52.496;13.456;2023-01-19T03:16:56;55.85;;;23.52;;
25758;SDS011;13604;52.496;13.456;2023-01-19T03:19:26;58.58;;;23.90;;
25758;SDS011;13604;52.496;13.456;2023-01-19T03:22:18;66.47;;;25.27;;
25758;SDS011;13604;52.496;13.456;2023-01-19T03:24:47;64.43;;;24.90;;
25758;SDS011;13604;52.496;13.456;2023-01-19T03:27:16;55.35;;;23.02;;
25758;SDS011;13604;52.496;13.456;2023-01-19T03:29:52;50.30;;;22.30;;
25758;SDS011;13604;52.496;13.456;2023-01-19T03:32:22;43.83;;;16.50;;
25758;SDS011;13604;52.496;13.456;2023-01-19T03:34:53;51.35;;;22.52;;
25758;SDS011;13604;52.496;13.456;2023-01-19T03:37:23;47.70;;;20.70;;
25758;SDS011;13604;52.496;13.456;2023-01-19T03:39:50;50.75;;;20.95;;
25758;SDS011;13604;52.496;13.456;2023-01-19T03:42:16;55.47;;;21.67;;
25758;SDS011;13604;52.496;13.456;2023-01-19T03:44:42;57.38;;;21.58;;
25758;SDS011;13604;52.496;13.456;2023-01-19T03:47:09;47.95;;;21.67;;
25758;SDS011;13604;52.496;13.456;2023-01-19T03:49:37;72.80;;;22.90;;
25758;SDS011;13604;52.496;13.456;2023-01-19T03:52:05;52.20;;;22.05;;
25758;SDS011;13604;52.496;13.456;2023-01-19T03:54:30;53.42;;;22.85;;
25758;SDS011;13604;52.496;13.456;2023-01-19T03:56:56;56.53;;;22.13;;
25758;SDS011;13604;52.496;13.456;2023-01-19T03:59:21;60.05;;;23.42;;
25758;SDS011;13604;52.496;13.456;2023-01-19T04:01:47;54.72;;;22.17;;
25758;SDS011;13604;52.496;13.456;2023-01-19T04:04:13;54.65;;;21.83;;
25758;SDS011;13604;52.496;13.456;2023-01-19T04:06:39;63.60;;;22.95;;
25758;SDS011;13604;52.496;13.456;2023-01-19T04:09:05;59.17;;;23.55;;
25758;SDS011;13604;52.496;13.456;2023-01-19T04:11:30;62.88;;;22.33;;
25758;SDS011;13604;52.496;13.456;2023-01-19T04:13:55;57.00;;;22.98;;
25758;SDS011;13604;52.496;13.456;2023-01-19T04:16:21;55.58;;;23.33;;
25758;SDS011;13604;52.496;13.456;2023-01-19T04:18:47;57.83;;;22.38;;
25758;SDS011;13604;52.496;13.456;2023-01-19T04:21:13;57.20;;;22.77;;
25758;SDS011;13604;52.496;13.456;2023-01-19T04:23:39;54.53;;;22.33;;
25758;SDS011;13604;52.496;13.456;2023-01-19T04:26:05;60.65;;;22.70;;
25758;SDS011;13604;52.496;13.456;2023-01-19T04:28:32;56.63;;;22.00;;
25758;SDS011;13604;52.496;13.456;2023-01-19T04:30:58;54.78;;;22.98;;
25758;SDS011;13604;52.496;13.456;2023-01-19T04:33:25;52.60;;;20.80;;
25758;SDS011;13604;52.496;13.456;2023-01-19T04:35:51;52.58;;;21.45;;
25758;SDS011;13604;52.496;13.456;2023-01-19T04:38:17;51.53;;;21.83;;
25758;SDS011;13604;52.496;13.456;2023-01-19T04:40:42;55.22;;;22.60;;
25758;SDS011;13604;52.496;13.456;2023-01-19T04:43:07;66.47;;;23.70;;
25758;SDS011;13604;52.496;13.456;2023-01-19T04:45:34;54.83;;;22.52;;
25758;SDS011;13604;52.496;13.456;2023-01-19T04:48:00;61.13;;;23.73;;
25758;SDS011;13604;52.496;13.456;2023-01-19T04:50:28;55.42;;;23.17;;
25758;SDS011;13604;52.496;13.456;2023-01-19T04:52:53;57.55;;;23.65;;
25758;SDS011;13604;52.496;13.456;2023-01-19T04:55:19;58.30;;;23.02;;
25758;SDS011;13604;52.496;13.456;2023-01-19T04:57:44;54.70;;;22.83;;
25758;SDS011;13604;52.496;13.456;2023-01-19T05:00:10;50.78;;;22.73;;
25758;SDS011;13604;52.496;13.456;2023-01-19T05:02:35;58.08;;;24.08;;
25758;SDS011;13604;52.496;13.456;2023-01-19T05:05:01;57.00;;;23.95;;
25758;SDS011;13604;52.496;13.456;2023-01-19T05:07:27;54.80;;;23.67;;
25758;SDS011;13604;52.496;13.456;2023-01-19T05:09:53;63.15;;;24.02;;
25758;SDS011;13604;52.496;13.456;2023-01-19T05:12:18;60.35;;;24.85;;
25758;SDS011;13604;52.496;13.456;2023-01-19T05:14:44;49.55;;;21.38;;
25758;SDS011;13604;52.496;13.456;2023-01-19T05:17:09;49.25;;;21.10;;
25758;SDS011;13604;52.496;13.456;2023-01-19T05:19:35;55.85;;;22.38;;
25758;SDS011;13604;52.496;13.456;2023-01-19T05:22:04;54.40;;;22.08;;
25758;SDS011;13604;52.496;13.456;2023-01-19T05:24:30;57.95;;;23.10;;
25758;SDS011;13604;52.496;13.456;2023-01-19T05:26:55;58.15;;;22.35;;
25758;SDS011;13604;52.496;13.456;2023-01-19T05:29:21;55.33;;;23.10;;
25758;SDS011;13604;52.496;13.456;2023-01-19T05:31:46;68.88;;;25.88;;
25758;SDS011;13604;52.496;13.456;2023-01-19T05:34:12;58.55;;;22.88;;
25758;SDS011;13604;52.496;13.456;2023-01-19T05:36:38;66.35;;;25.48;;
25758;SDS011;13604;52.496;13.456;2023-01-19T05:39:04;57.78;;;23.35;;
25758;SDS011;13604;52.496;13.456;2023-01-19T05:41:29;55.83;;;23.48;;
25758;SDS011;13604;52.496;13.456;2023-01-19T05:43:54;56.75;;;24.52;;
25758;SDS011;13604;52.496;13.456;2023-01-19T05:46:20;62.42;;;24.67;;
25758;SDS011;13604;52.496;13.456;2023-01-19T05:48:45;65.43;;;24.35;;
25758;SDS011;13604;52.496;13.456;2023-01-19T05:51:10;62.33;;;24.45;;
25758;SDS011;13604;52.496;13.456;2023-01-19T05:53:36;69.05;;;24.95;;
25758;SDS011;13604;52.496;13.456;2023-01-19T05:56:02;66.30;;;25.27;;
25758;SDS011;13604;52.496;13.456;2023-01-19T05:58:29;59.65;;;25.67;;
25758;SDS011;13604;52.496;13.456;2023-01-19T06:00:54;62.05;;;25.33;;
25758;SDS011;13604;52.496;13.456;2023-01-19T06:03:20;67.07;;;26.20;;
25758;SDS011;13604;52.496;13.456;2023-01-19T06:05:45;59.35;;;23.83;;
25758;SDS011;13604;52.496;13.456;2023-01-19T06:08:10;60.38;;;26.42;;
25758;SDS011;13604;52.496;13.456;2023-01-19T06:10:36;61.67;;;25.45;;
25758;SDS011;13604;52.496;13.456;2023-01-19T06:13:01;57.38;;;26.73;;
25758;SDS011;13604;52.496;13.456;2023-01-19T06:15:26;64.68;;;24.38;;
25758;SDS011;13604;52.496;13.456;2023-01-19T06:17:52;56.60;;;23.80;;
25758;SDS011;13604;52.496;13.456;2023-01-19T06:20:17;61.33;;;25.00;;
25758;SDS011;13604;52.496;13.456;2023-01-19T06:22:42;60.80;;;24.42;;
25758;SDS011;13604;52.496;13.456;2023-01-19T06:25:08;57.80;;;24.13;;
25758;SDS011;13604;52.496;13.456;2023-01-19T06:27:34;57.63;;;23.40;;
25758;SDS011;13604;52.496;13.456;2023-01-19T06:30:00;61.10;;;24.45;;
25758;SDS011;13604;52.496;13.456;2023-01-19T06:32:26;54.63;;;23.10;;
25758;SDS011;13604;52.496;13.456;2023-01-19T06:34:51;55.85;;;23.17;;
25758;SDS011;13604;52.496;13.456;2023-01-19T06:37:16;50.22;;;21.52;;
25758;SDS011;13604;52.496;13.456;2023-01-19T06:39:41;55.10;;;23.45;;
25758;SDS011;13604;52.496;13.456;2023-01-19T06:42:09;63.92;;;24.10;;
25758;SDS011;13604;52.496;13.456;2023-01-19T06:44:34;53.72;;;23.15;;
25758;SDS011;13604;52.496;13.456;2023-01-19T06:46:59;51.83;;;23.55;;
25758;SDS011;13604;52.496;13.456;2023-01-19T06:49:25;59.53;;;22.70;;
25758;SDS011;13604;52.496;13.456;2023-01-19T06:51:50;56.30;;;22.20;;
25758;SDS011;13604;52.496;13.456;2023-01-19T06:54:15;56.78;;;22.23;;
25758;SDS011;13604;52.496;13.456;2023-01-19T06:56:41;47.40;;;21.20;;
25758;SDS011;13604;52.496;13.456;2023-01-19T06:59:06;46.40;;;20.00;;
25758;SDS011;13604;52.496;13.456;2023-01-19T07:01:32;49.58;;;21.20;;
25758;SDS011;13604;52.496;13.456;2023-01-19T07:03:57;50.92;;;20.77;;
25758;SDS011;13604;52.496;13.456;2023-01-19T07:06:22;50.85;;;21.27;;
25758;SDS011;13604;52.496;13.456;2023-01-19T07:08:48;52.13;;;21.02;;
25758;SDS011;13604;52.496;13.456;2023-01-19T07:11:13;50.30;;;20.48;;
25758;SDS011;13604;52.496;13.456;2023-01-19T07:13:38;51.97;;;21.13;;
25758;SDS011;13604;52.496;13.456;2023-01-19T07:16:08;55.70;;;21.90;;
25758;SDS011;13604;52.496;13.456;2023-01-19T07:18:36;44.85;;;20.45;;
25758;SDS011;13604;52.496;13.456;2023-01-19T07:21:02;40.00;;;19.42;;
25758;SDS011;13604;52.496;13.456;2023-01-19T07:23:28;49.80;;;21.63;;
25758;SDS011;13604;52.496;13.456;2023-01-19T07:25:57;48.55;;;21.55;;
25758;SDS011;13604;52.496;13.456;2023-01-19T07:28:25;50.67;;;22.40;;
25758;SDS011;13604;52.496;13.456;2023-01-19T07:30:52;46.42;;;21.00;;
25758;SDS011;13604;52.496;13.456;2023-01-19T07:33:18;46.38;;;20.40;;
25758;SDS011;13604;52.496;13.456;2023-01-19T07:35:46;51.28;;;21.95;;
25758;SDS011;13604;52.496;13.456;2023-01-19T07:38:12;42.80;;;19.42;;
25758;SDS011;13604;52.496;13.456;2023-01-19T07:40:37;48.50;;;20.25;;
25758;SDS011;13604;52.496;13.456;2023-01-19T07:43:03;41.20;;;19.50;;
25758;SDS011;13604;52.496;13.456;2023-01-19T07:45:28;46.38;;;20.75;;
25758;SDS011;13604;52.496;13.456;2023-01-19T07:47:53;39.83;;;19.52;;
25758;SDS011;13604;52.496;13.456;2023-01-19T07:50:19;46.67;;;19.23;;
25758;SDS011;13604;52.496;13.456;2023-01-19T07:52:49;43.05;;;19.10;;
25758;SDS011;13604;52.496;13.456;2023-01-19T07:55:17;45.05;;;20.35;;
25758;SDS011;13604;52.496;13.456;2023-01-19T07:57:43;37.63;;;19.17;;
25758;SDS011;13604;52.496;13.456;2023-01-19T08:00:09;44.28;;;19.55;;
25758;SDS011;13604;52.496;13.456;2023-01-19T08:02:35;49.58;;;19.65;;
25758;SDS011;13604;52.496;13.456;2023-01-19T08:05:01;40.80;;;17.27;;
25758;SDS011;13604;52.496;13.456;2023-01-19T08:07:26;47.70;;;19.02;;
25758;SDS011;13604;52.496;13.456;2023-01-19T08:09:52;37.70;;;18.08;;
25758;SDS011;13604;52.496;13.456;2023-01-19T08:12:17;38.90;;;16.45;;
25758;SDS011;13604;52.496;13.456;2023-01-19T08:14:42;36.70;;;17.05;;
25758;SDS011;13604;52.496;13.456;2023-01-19T08:17:11;33.58;;;15.98;;
25758;SDS011;13604;52.496;13.456;2023-01-19T08:19:37;37.05;;;15.48;;
25758;SDS011;13604;52.496;13.456;2023-01-19T08:22:02;32.58;;;15.95;;
25758;SDS011;13604;52.496;13.456;2023-01-19T08:24:28;32.25;;;15.00;;
25758;SDS011;13604;52.496;13.456;2023-01-19T08:26:57;30.70;;;15.15;;
25758;SDS011;13604;52.496;13.456;2023-01-19T08:29:23;41.78;;;16.40;;
25758;SDS011;13604;52.496;13.456;2023-01-19T08:31:49;31.33;;;14.48;;
25758;SDS011;13604;52.496;13.456;2023-01-19T08:34:14;28.80;;;13.25;;
25758;SDS011;13604;52.496;13.456;2023-01-19T08:36:39;31.23;;;13.25;;
25758;SDS011;13604;52.496;13.456;2023-01-19T08:39:05;22.50;;;12.98;;
25758;SDS011;13604;52.496;13.456;2023-01-19T08:41:30;28.38;;;12.30;;
25758;SDS011;13604;52.496;13.456;2023-01-19T08:43:56;24.17;;;11.45;;
25758;SDS011;13604;52.496;13.456;2023-01-19T08:46:21;25.65;;;12.05;;
25758;SDS011;13604;52.496;13.456;2023-01-19T08:48:47;20.17;;;10.32;;
25758;SDS011;13604;52.496;13.456;2023-01-19T08:51:13;24.98;;;10.63;;
25758;SDS011;13604;52.496;13.456;2023-01-19T08:53:39;23.23;;;10.20;;
25758;SDS011;13604;52.496;13.456;2023-01-19T08:56:07;17.63;;;9.15;;
25758;SDS011;13604;52.496;13.456;2023-01-19T08:58:36;23.55;;;10.43;;
25758;SDS011;13604;52.496;13.456;2023-01-19T09:01:03;16.90;;;9.23;;
25758;SDS011;13604;52.496;13.456;2023-01-19T09:03:29;18.20;;;9.45;;
25758;SDS011;13604;52.496;13.456;2023-01-19T09:05:54;20.17;;;10.05;;
25758;SDS011;13604;52.496;13.456;2023-01-19T09:08:19;21.02;;;8.38;;
25758;SDS011;13604;52.496;13.456;2023-01-19T09:10:46;16.92;;;9.20;;
25758;SDS011;13604;52.496;13.456;2023-01-19T09:13:13;15.98;;;8.50;;
25758;SDS011;13604;52.496;13.456;2023-01-19T09:15:40;15.70;;;8.68;;
25758;SDS011;13604;52.496;13.456;2023-01-19T09:18:08;14.48;;;8.85;;
25758;SDS011;13604;52.496;13.456;2023-01-19T09:20:37;18.88;;;8.75;;
25758;SDS011;13604;52.496;13.456;2023-01-19T09:23:03;20.15;;;9.13;;
25758;SDS011;13604;52.496;13.456;2023-01-19T09:25:28;15.75;;;7.50;;
25758;SDS011;13604;52.496;13.456;2023-01-19T09:27:54;19.02;;;7.70;;
25758;SDS011;13604;52.496;13.456;2023-01-19T09:30:20;15.45;;;7.97;;
25758;SDS011;13604;52.496;13.456;2023-01-19T09:32:45;16.90;;;7.60;;
25758;SDS011;13604;52.496;13.456;2023-01-19T09:35:11;16.90;;;8.05;;
25758;SDS011;13604;52.496;13.456;2023-01-19T09:37:36;12.98;;;7.50;;
25758;SDS011;13604;52.496;13.456;2023-01-19T09:40:02;22.00;;;8.98;;
25758;SDS011;13604;52.496;13.456;2023-01-19T09:42:38;17.75;;;7.32;;
25758;SDS011;13604;52.496;13.456;2023-01-19T09:45:12;16.25;;;7.28;;
25758;SDS011;13604;52.496;13.456;2023-01-19T09:47:42;15.45;;;7.00;;
25758;SDS011;13604;52.496;13.456;2023-01-19T09:50:15;14.20;;;6.95;;
25758;SDS011;13604;52.496;13.456;2023-01-19T09:52:57;18.50;;;7.13;;
25758;SDS011;13604;52.496;13.456;2023-01-19T09:55:29;15.93;;;7.32;;
25758;SDS011;13604;52.496;13.456;2023-01-19T09:57:54;16.70;;;7.75;;
25758;SDS011;13604;52.496;13.456;2023-01-19T10:00:20;14.80;;;7.65;;
25758;SDS011;13604;52.496;13.456;2023-01-19T10:02:49;12.32;;;6.65;;
25758;SDS011;13604;52.496;13.456;2023-01-19T10:10:28;13.18;;;6.85;;
25758;SDS011;13604;52.496;13.456;2023-01-19T10:18:36;13.57;;;7.00;;
25758;SDS011;13604;52.496;13.456;2023-01-19T10:21:30;11.02;;;7.35;;
25758;SDS011;13604;52.496;13.456;2023-01-19T10:24:20;14.18;;;7.05;;
25758;SDS011;13604;52.496;13.456;2023-01-19T10:27:02;14.35;;;7.32;;
25758;SDS011;13604;52.496;13.456;2023-01-19T10:29:34;12.75;;;6.90;;
25758;SDS011;13604;52.496;13.456;2023-01-19T10:32:18;11.95;;;6.60;;
25758;SDS011;13604;52.496;13.456;2023-01-19T10:34:47;14.43;;;7.53;;
25758;SDS011;13604;52.496;13.456;2023-01-19T10:39:45;11.90;;;7.47;;
25758;SDS011;13604;52.496;13.456;2023-01-19T10:42:15;13.50;;;6.78;;
25758;SDS011;13604;52.496;13.456;2023-01-19T10:44:41;12.02;;;7.05;;
25758;SDS011;13604;52.496;13.456;2023-01-19T10:47:16;11.77;;;6.32;;
25758;SDS011;13604;52.496;13.456;2023-01-19T10:49:43;13.63;;;7.30;;
25758;SDS011;13604;52.496;13.456;2023-01-19T10:54:56;12.07;;;7.25;;
25758;SDS011;13604;52.496;13.456;2023-01-19T10:57:25;11.13;;;6.60;;
25758;SDS011;13604;52.496;13.456;2023-01-19T10:59:54;11.40;;;7.05;;
25758;SDS011;13604;52.496;13.456;2023-01-19T11:02:27;13.70;;;6.35;;
25758;SDS011;13604;52.496;13.456;2023-01-19T11:04:58;9.35;;;6.88;;
25758;SDS011;13604;52.496;13.456;2023-01-19T11:12:41;11.82;;;6.53;;
25758;SDS011;13604;52.496;13.456;2023-01-19T11:15:23;10.50;;;7.32;;
25758;SDS011;13604;52.496;13.456;2023-01-19T11:17:52;15.82;;;7.28;;
25758;SDS011;13604;52.496;13.456;2023-01-19T11:20:19;14.63;;;6.95;;
25758;SDS011;13604;52.496;13.456;2023-01-19T11:22:47;12.35;;;7.45;;
25758;SDS011;13604;52.496;13.456;2023-01-19T11:25:28;11.75;;;7.57;;
25758;SDS011;13604;52.496;13.456;2023-01-19T11:27:55;10.80;;;7.57;;
25758;SDS011;13604;52.496;13.456;2023-01-19T11:30:22;12.30;;;7.90;;
25758;SDS011;13604;52.496;13.456;2023-01-19T11:32:49;13.93;;;7.43;;
25758;SDS011;13604;52.496;13.456;2023-01-19T11:35:32;12.82;;;7.38;;
25758;SDS011;13604;52.496;13.456;2023-01-19T11:40:49;13.27;;;7.30;;
25758;SDS011;13604;52.496;13.456;2023-01-19T11:43:18;10.40;;;7.20;;
25758;SDS011;13604;52.496;13.456;2023-01-19T11:45:45;11.73;;;7.38;;
25758;SDS011;13604;52.496;13.456;2023-01-19T11:48:13;10.18;;;7.20;;
25758;SDS011;13604;52.496;13.456;2023-01-19T11:50:47;13.35;;;7.80;;
25758;SDS011;13604;52.496;13.456;2023-01-19T11:53:17;10.35;;;6.93;;
25758;SDS011;13604;52.496;13.456;2023-01-19T11:56:00;13.70;;;7.97;;
25758;SDS011;13604;52.496;13.456;2023-01-19T11:58:28;13.30;;;7.22;;
25758;SDS011;13604;52.496;13.456;2023-01-19T12:00:56;14.23;;;7.55;;
25758;SDS011;13604;52.496;13.456;2023-01-19T12:03:25;14.75;;;8.50;;
25758;SDS011;13604;52.496;13.456;2023-01-19T12:05:57;13.07;;;8.07;;
25758;SDS011;13604;52.496;13.456;2023-01-19T12:08:33;17.15;;;8.93;;
25758;SDS011;13604;52.496;13.456;2023-01-19T12:11:07;17.02;;;8.30;;
25758;SDS011;13604;52.496;13.456;2023-01-19T12:13:36;16.77;;;8.57;;
25758;SDS011;13604;52.496;13.456;2023-01-19T12:16:20;16.00;;;8.77;;
25758;SDS011;13604;52.496;13.456;2023-01-19T12:18:48;14.35;;;7.88;;
25758;SDS011;13604;52.496;13.456;2023-01-19T12:21:17;15.98;;;8.57;;
25758;SDS011;13604;52.496;13.456;2023-01-19T12:23:46;18.25;;;8.40;;
25758;SDS011;13604;52.496;13.456;2023-01-19T12:29:20;19.83;;;8.85;;
25758;SDS011;13604;52.496;13.456;2023-01-19T12:34:47;13.73;;;8.77;;
25758;SDS011;13604;52.496;13.456;2023-01-19T12:39:51;15.63;;;8.48;;
25758;SDS011;13604;52.496;13.456;2023-01-19T12:42:17;17.88;;;9.60;;
25758;SDS011;13604;52.496;13.456;2023-01-19T12:44:43;17.50;;;8.88;;
25758;SDS011;13604;52.496;13.456;2023-01-19T12:49:40;16.02;;;9.90;;
25758;SDS011;13604;52.496;13.456;2023-01-19T12:57:52;15.43;;;8.45;;
25758;SDS011;13604;52.496;13.456;2023-01-19T13:02:47;18.37;;;9.07;;
25758;SDS011;13604;52.496;13.456;2023-01-19T13:05:22;16.48;;;9.25;;
25758;SDS011;13604;52.496;13.456;2023-01-19T13:15:47;14.98;;;8.82;;
25758;SDS011;13604;52.496;13.456;2023-01-19T13:18:16;15.65;;;9.43;;
25758;SDS011;13604;52.496;13.456;2023-01-19T13:20:45;16.98;;;9.60;;
25758;SDS011;13604;52.496;13.456;2023-01-19T13:28:41;15.90;;;9.70;;
25758;SDS011;13604;52.496;13.456;2023-01-19T13:31:08;15.82;;;9.88;;
25758;SDS011;13604;52.496;13.456;2023-01-19T13:33:48;15.23;;;8.85;;
25758;SDS011;13604;52.496;13.456;2023-01-19T13:36:25;14.82;;;9.05;;
25758;SDS011;13604;52.496;13.456;2023-01-19T13:38:56;15.98;;;10.18;;
25758;SDS011;13604;52.496;13.456;2023-01-19T13:41:25;15.73;;;9.20;;
25758;SDS011;13604;52.496;13.456;2023-01-19T13:46:37;16.60;;;9.50;;
25758;SDS011;13604;52.496;13.456;2023-01-19T13:49:04;15.68;;;9.95;;
25758;SDS011;13604;52.496;13.456;2023-01-19T13:51:39;16.48;;;10.07;;
25758;SDS011;13604;52.496;13.456;2023-01-19T13:54:12;16.08;;;10.25;;
25758;SDS011;13604;52.496;13.456;2023-01-19T13:56:39;18.90;;;9.70;;
25758;SDS011;13604;52.496;13.456;2023-01-19T13:59:11;19.75;;;10.20;;
25758;SDS011;13604;52.496;13.456;2023-01-19T14:01:37;17.15;;;10.48;;
25758;SDS011;13604;52.496;13.456;2023-01-19T14:04:04;17.30;;;10.85;;
25758;SDS011;13604;52.496;13.456;2023-01-19T14:06:31;22.73;;;12.07;;
25758;SDS011;13604;52.496;13.456;2023-01-19T14:09:17;19.13;;;10.25;;
25758;SDS011;13604;52.496;13.456;2023-01-19T14:11:44;21.45;;;10.90;;
25758;SDS011;13604;52.496;13.456;2023-01-19T14:14:26;23.08;;;11.52;;
25758;SDS011;13604;52.496;13.456;2023-01-19T14:16:52;18.63;;;10.82;;
25758;SDS011;13604;52.496;13.456;2023-01-19T14:19:18;22.33;;;11.90;;
25758;SDS011;13604;52.496;13.456;2023-01-19T14:21:44;22.02;;;10.88;;
25758;SDS011;13604;52.496;13.456;2023-01-19T14:24:19;21.25;;;11.57;;
25758;SDS011;13604;52.496;13.456;2023-01-19T14:26:51;21.13;;;10.43;;
25758;SDS011;13604;52.496;13.456;2023-01-19T14:29:25;22.45;;;11.95;;
25758;SDS011;13604;52.496;13.456;2023-01-19T14:34:27;23.50;;;11.40;;
25758;SDS011;13604;52.496;13.456;2023-01-19T14:36:53;22.08;;;10.77;;
25758;SDS011;13604;52.496;13.456;2023-01-19T14:39:19;19.85;;;10.68;;
25758;SDS011;13604;52.496;13.456;2023-01-19T14:41:49;19.42;;;10.93;;
25758;SDS011;13604;52.496;13.456;2023-01-19T14:44:36;29.45;;;13.02;;
25758;SDS011;13604;52.496;13.456;2023-01-19T14:47:04;24.67;;;12.25;;
25758;SDS011;13604;52.496;13.456;2023-01-19T14:49:32;24.10;;;12.73;;
25758;SDS011;13604;52.496;13.456;2023-01-19T14:52:00;24.42;;;12.50;;
25758;SDS011;13604;52.496;13.456;2023-01-19T14:54:35;26.40;;;13.00;;
25758;SDS011;13604;52.496;13.456;2023-01-19T14:57:03;28.38;;;13.02;;
25758;SDS011;13604;52.496;13.456;2023-01-19T14:59:28;25.83;;;13.30;;
25758;SDS011;13604;52.496;13.456;2023-01-19T15:01:54;30.73;;;13.43;;
25758;SDS011;13604;52.496;13.456;2023-01-19T15:04:19;26.55;;;13.38;;
25758;SDS011;13604;52.496;13.456;2023-01-19T15:06:44;26.40;;;13.68;;
25758;SDS011;13604;52.496;13.456;2023-01-19T15:09:13;29.20;;;14.23;;
25758;SDS011;13604;52.496;13.456;2023-01-19T15:11:40;26.70;;;13.50;;
25758;SDS011;13604;52.496;13.456;2023-01-19T15:14:07;30.33;;;14.63;;
25758;SDS011;13604;52.496;13.456;2023-01-19T15:16:37;26.60;;;13.23;;
25758;SDS011;13604;52.496;13.456;2023-01-19T15:19:02;26.08;;;14.25;;
25758;SDS011;13604;52.496;13.456;2023-01-19T15:21:28;27.15;;;13.73;;
25758;SDS011;13604;52.496;13.456;2023-01-19T15:23:53;32.78;;;14.75;;
25758;SDS011;13604;52.496;13.456;2023-01-19T15:26:20;31.08;;;14.32;;